Time;durP1;ratioP1;P1;durP2;ratioP2;P2;SDS_P1;SDS_P2;PMS_P1;PMS_P2;Temp;Humidity;BMP_temperature;BMP_pressure;BME280_temperature;BME280_humidity;BME280_pressure;Samples;Min_cycle;Max_cycle;Signal;HPM_P1;HPM_P2
2022/10/27 00:01:03;;;;;;;11.75;4.25;;;14.50;99.90;;;;;;5032134;28;20048;-90
2022/10/27 00:03:29;;;;;;;10.25;4.38;;;14.50;99.90;;;;;;5022299;28;20056;-91
2022/10/27 00:05:55;;;;;;;12.05;3.95;;;14.40;99.90;;;;;;5032154;28;20158;-92
2022/10/27 00:08:21;;;;;;;10.57;4.13;;;14.30;99.90;;;;;;5028926;28;20017;-91
2022/10/27 00:10:57;;;;;;;11.05;4.32;;;14.30;99.90;;;;;;5028686;28;20021;-92
2022/10/27 00:13:24;;;;;;;8.27;4.07;;;14.30;99.90;;;;;;5024706;28;20021;-91
2022/10/27 00:15:57;;;;;;;9.82;4.40;;;14.20;99.90;;;;;;5024879;28;20468;-92
2022/10/27 00:18:23;;;;;;;7.95;4.10;;;14.20;99.90;;;;;;5028734;28;20426;-93
2022/10/27 00:21:09;;;;;;;8.93;4.07;;;14.20;99.90;;;;;;5030935;28;20033;-92
2022/10/27 00:23:37;;;;;;;9.15;4.15;;;14.20;99.90;;;;;;5041706;28;20471;-91
2022/10/27 00:26:03;;;;;;;8.15;3.38;;;14.10;99.90;;;;;;5031096;28;20094;-92
2022/10/27 00:28:29;;;;;;;11.90;4.10;;;14.10;99.90;;;;;;5028039;28;20503;-92
2022/10/27 00:31:00;;;;;;;10.32;4.07;;;14.10;99.90;;;;;;5025094;28;20489;-91
2022/10/27 00:33:25;;;;;;;7.88;4.30;;;14.00;99.90;;;;;;5043325;28;20017;-91
2022/10/27 00:35:51;;;;;;;7.35;3.85;;;14.00;99.90;;;;;;5046912;28;20059;-90
2022/10/27 00:38:16;;;;;;;7.45;3.55;;;14.00;99.90;;;;;;5041545;28;20027;-92
2022/10/27 00:40:42;;;;;;;8.30;3.58;;;14.00;99.90;;;;;;5045867;28;20056;-92
2022/10/27 00:43:31;;;;;;;8.88;3.75;;;14.00;99.90;;;;;;5030839;28;20017;-91
2022/10/27 00:46:09;;;;;;;14.13;4.03;;;14.00;99.90;;;;;;5029732;28;20025;-91
2022/10/27 00:48:35;;;;;;;14.05;3.80;;;14.00;99.90;;;;;;5027661;28;20021;-92
2022/10/27 00:51:02;;;;;;;7.35;4.25;;;13.90;99.90;;;;;;5030894;28;20052;-92
2022/10/27 00:53:29;;;;;;;13.48;4.15;;;14.00;99.90;;;;;;5029255;28;20029;-89
2022/10/27 00:55:54;;;;;;;9.13;3.78;;;13.90;99.90;;;;;;5028979;28;20120;-91
2022/10/27 00:58:21;;;;;;;8.02;3.65;;;13.90;99.90;;;;;;5030502;28;20081;-91
2022/10/27 01:00:47;;;;;;;12.05;4.00;;;13.90;99.90;;;;;;5017774;28;20040;-92
2022/10/27 01:03:16;;;;;;;10.15;3.55;;;13.90;99.90;;;;;;5020726;28;20029;-91
2022/10/27 01:05:43;;;;;;;11.50;4.45;;;13.90;99.90;;;;;;5025450;28;20045;-92
2022/10/27 01:08:09;;;;;;;9.15;4.15;;;13.90;99.90;;;;;;5032018;28;20389;-92
2022/10/27 01:10:34;;;;;;;7.53;4.35;;;13.90;99.90;;;;;;5032015;28;20029;-91
2022/10/27 01:13:01;;;;;;;13.10;4.65;;;13.80;99.90;;;;;;5031131;28;20056;-92
2022/10/27 01:15:46;;;;;;;7.72;3.78;;;13.80;99.90;;;;;;5027299;28;20025;-92
2022/10/27 01:18:18;;;;;;;7.22;3.67;;;13.80;99.90;;;;;;5031269;28;20028;-91
2022/10/27 01:21:05;;;;;;;11.27;3.72;;;13.80;99.90;;;;;;5039728;28;20502;-90
2022/10/27 01:23:40;;;;;;;6.90;4.07;;;13.80;99.90;;;;;;5025709;28;20025;-92
2022/10/27 01:26:23;;;;;;;8.38;4.20;;;13.80;99.90;;;;;;5024727;28;20029;-91
2022/10/27 01:29:13;;;;;;;14.55;4.18;;;13.80;99.90;;;;;;5026089;28;20128;-92
2022/10/27 01:32:06;;;;;;;9.35;3.85;;;13.70;99.90;;;;;;5028667;28;20025;-91
2022/10/27 01:34:52;;;;;;;6.90;3.33;;;13.80;99.90;;;;;;5033005;28;20037;-91
2022/10/27 01:37:29;;;;;;;7.88;3.60;;;13.80;99.90;;;;;;5048161;28;20032;-91
2022/10/27 01:40:21;;;;;;;6.35;3.70;;;13.80;99.90;;;;;;5045485;28;20172;-92
2022/10/27 01:42:50;;;;;;;7.20;3.57;;;13.80;99.90;;;;;;5031972;28;20477;-92
2022/10/27 01:45:21;;;;;;;7.80;3.85;;;13.80;99.90;;;;;;5024785;28;20036;-93
2022/10/27 01:47:47;;;;;;;10.25;3.75;;;13.80;99.90;;;;;;5026313;28;20021;-91
2022/10/27 01:50:17;;;;;;;9.50;3.97;;;13.80;99.90;;;;;;5029456;28;20055;-91
2022/10/27 01:52:49;;;;;;;7.35;4.20;;;13.80;99.90;;;;;;5032637;28;20056;-92
2022/10/27 01:55:27;;;;;;;8.90;3.95;;;13.90;99.90;;;;;;5039800;28;20025;-92
2022/10/27 01:58:05;;;;;;;10.55;3.60;;;13.90;99.90;;;;;;5044139;28;20091;-92
2022/10/27 02:01:02;;;;;;;11.57;4.28;;;14.00;99.90;;;;;;5045942;28;20111;-93
2022/10/27 02:03:46;;;;;;;11.10;4.22;;;14.00;99.90;;;;;;5005267;28;20128;-92
2022/10/27 02:06:44;;;;;;;7.53;3.47;;;14.10;99.90;;;;;;5033259;28;20029;-93
2022/10/27 02:09:16;;;;;;;6.05;3.00;;;14.20;99.90;;;;;;5041451;28;20029;-92
2022/10/27 02:11:44;;;;;;;9.48;3.67;;;14.20;99.90;;;;;;5032921;28;20033;-91
2022/10/27 02:14:11;;;;;;;8.93;3.58;;;14.20;99.90;;;;;;5033493;28;20036;-91
2022/10/27 02:16:44;;;;;;;9.00;4.18;;;14.20;99.90;;;;;;5029737;28;20071;-92
2022/10/27 02:19:17;;;;;;;8.90;4.00;;;14.30;99.90;;;;;;5028934;28;20021;-92
2022/10/27 02:21:45;;;;;;;8.55;3.55;;;14.30;99.90;;;;;;5034079;28;20064;-91
2022/10/27 02:24:11;;;;;;;6.28;3.55;;;14.30;99.90;;;;;;5045767;28;20032;-91
2022/10/27 02:26:58;;;;;;;8.10;3.90;;;14.20;99.90;;;;;;5034365;28;20029;-91
2022/10/27 02:29:23;;;;;;;12.15;3.95;;;14.30;99.90;;;;;;5049930;28;20021;-91
2022/10/27 02:31:52;;;;;;;11.70;4.47;;;14.30;99.90;;;;;;5029255;28;20032;-92
2022/10/27 02:34:18;;;;;;;9.63;3.47;;;14.30;99.90;;;;;;5045001;28;20373;-92
2022/10/27 02:36:45;;;;;;;8.73;3.83;;;14.30;99.90;;;;;;5032808;28;20052;-92
2022/10/27 02:39:10;;;;;;;11.10;3.55;;;14.30;99.90;;;;;;5032181;28;20056;-91
2022/10/27 02:41:36;;;;;;;14.43;4.50;;;14.20;99.90;;;;;;5026468;28;20107;-91
2022/10/27 02:44:01;;;;;;;11.15;4.38;;;14.30;99.90;;;;;;5031308;28;20052;-93
2022/10/27 02:46:27;;;;;;;6.43;3.65;;;14.30;99.90;;;;;;5026997;28;20030;-91
2022/10/27 02:48:53;;;;;;;6.43;3.85;;;14.20;99.90;;;;;;5029451;28;20021;-91
2022/10/27 02:51:18;;;;;;;12.00;4.15;;;14.20;99.90;;;;;;5029584;28;20025;-92
2022/10/27 02:53:44;;;;;;;9.10;4.13;;;14.20;99.90;;;;;;5031890;28;20052;-91
2022/10/27 02:56:09;;;;;;;13.32;4.20;;;14.20;99.90;;;;;;5033591;28;20025;-90
2022/10/27 02:58:35;;;;;;;11.10;4.40;;;14.10;99.90;;;;;;5030709;28;20068;-91
2022/10/27 03:01:01;;;;;;;9.73;3.65;;;14.10;99.90;;;;;;5031657;28;20485;-91
2022/10/27 03:03:26;;;;;;;9.88;3.92;;;14.10;99.90;;;;;;5029876;28;20029;-92
2022/10/27 03:05:52;;;;;;;9.30;4.15;;;14.00;99.90;;;;;;5028781;28;20033;-92
2022/10/27 03:08:18;;;;;;;9.82;4.22;;;14.00;99.90;;;;;;5032086;28;20013;-91
2022/10/27 03:10:44;;;;;;;10.15;4.78;;;14.00;99.90;;;;;;5030192;28;20029;-92
2022/10/27 03:13:10;;;;;;;10.00;4.45;;;13.90;99.90;;;;;;5031059;28;20025;-92
2022/10/27 03:15:35;;;;;;;8.70;4.20;;;13.90;99.90;;;;;;5030487;28;20025;-92
2022/10/27 03:18:01;;;;;;;7.60;4.13;;;13.90;99.90;;;;;;5032858;28;20065;-91
2022/10/27 03:20:27;;;;;;;10.23;5.20;;;13.90;99.90;;;;;;5031370;28;20037;-93
2022/10/27 03:22:53;;;;;;;9.23;5.35;;;13.80;99.90;;;;;;5031760;28;20021;-93
2022/10/27 03:25:18;;;;;;;14.85;6.22;;;13.80;99.90;;;;;;5031932;28;20027;-91
2022/10/27 03:27:44;;;;;;;13.30;6.20;;;13.70;99.90;;;;;;5030245;28;20384;-92
2022/10/27 03:30:12;;;;;;;9.57;6.70;;;13.60;99.90;;;;;;5031793;28;20028;-92
2022/10/27 03:32:38;;;;;;;15.82;7.15;;;13.60;99.90;;;;;;5049182;28;20025;-92
2022/10/27 03:35:05;;;;;;;14.70;7.18;;;13.50;99.90;;;;;;5029941;28;20504;-94
2022/10/27 03:37:30;;;;;;;11.98;6.78;;;13.50;99.90;;;;;;5049020;28;20044;-91
2022/10/27 03:39:56;;;;;;;13.13;8.25;;;13.50;99.90;;;;;;5028444;28;20068;-93
2022/10/27 03:42:21;;;;;;;12.13;8.07;;;13.50;99.90;;;;;;5029455;28;20056;-92
2022/10/27 03:44:47;;;;;;;12.32;8.77;;;13.40;99.90;;;;;;5029595;28;20025;-92
2022/10/27 03:47:13;;;;;;;19.08;8.98;;;13.40;99.90;;;;;;5031590;28;20017;-93
2022/10/27 03:49:38;;;;;;;14.23;8.98;;;13.40;99.90;;;;;;5028878;28;20528;-91
2022/10/27 03:52:04;;;;;;;12.38;8.10;;;13.30;99.90;;;;;;5032376;28;20036;-92
2022/10/27 03:54:30;;;;;;;15.57;8.45;;;13.30;99.90;;;;;;5030674;28;20032;-92
2022/10/27 03:56:56;;;;;;;13.77;9.05;;;13.20;99.90;;;;;;5030201;28;20063;-94
2022/10/27 03:59:22;;;;;;;14.30;8.50;;;13.30;99.90;;;;;;5030459;28;20048;-91
2022/10/27 04:01:47;;;;;;;16.08;8.25;;;13.20;99.90;;;;;;5028993;28;20948;-93
2022/10/27 04:04:13;;;;;;;13.20;7.68;;;13.20;99.90;;;;;;5032652;28;20120;-92
2022/10/27 04:06:39;;;;;;;13.38;7.97;;;13.10;99.90;;;;;;5030607;28;20035;-94
2022/10/27 04:09:05;;;;;;;14.35;7.82;;;13.10;99.90;;;;;;5031228;28;20477;-90
2022/10/27 04:11:30;;;;;;;13.27;7.75;;;13.10;99.90;;;;;;5030446;28;20435;-91
2022/10/27 04:13:56;;;;;;;14.15;7.60;;;13.10;99.90;;;;;;5029048;28;20040;-92
2022/10/27 04:16:21;;;;;;;12.27;7.43;;;13.10;99.90;;;;;;5045165;28;20108;-91
2022/10/27 04:18:47;;;;;;;10.00;6.60;;;13.10;99.90;;;;;;5030496;28;20468;-92
2022/10/27 04:21:14;;;;;;;12.70;6.72;;;13.10;99.90;;;;;;5031614;28;20128;-92
2022/10/27 04:23:39;;;;;;;11.15;6.57;;;13.10;99.90;;;;;;5027551;28;20127;-92
2022/10/27 04:26:06;;;;;;;9.38;6.60;;;13.10;99.90;;;;;;5030725;28;22149;-92
2022/10/27 04:28:31;;;;;;;12.32;5.95;;;13.10;99.90;;;;;;5022344;28;20017;-92
2022/10/27 04:30:57;;;;;;;14.75;6.65;;;13.10;99.90;;;;;;5031682;28;20394;-92
2022/10/27 04:33:23;;;;;;;13.07;6.07;;;13.00;99.90;;;;;;5043290;28;20029;-92
2022/10/27 04:35:48;;;;;;;12.43;7.38;;;13.00;99.90;;;;;;5030584;28;20033;-92
2022/10/27 04:38:14;;;;;;;13.63;6.63;;;13.00;99.90;;;;;;5029151;28;20036;-93
2022/10/27 04:40:40;;;;;;;11.32;5.82;;;12.90;99.90;;;;;;5021736;28;20057;-91
2022/10/27 04:43:06;;;;;;;10.13;5.93;;;12.90;99.90;;;;;;5026046;28;20048;-92
2022/10/27 04:45:32;;;;;;;14.07;5.95;;;12.90;99.90;;;;;;5026351;28;20393;-93
2022/10/27 04:47:58;;;;;;;10.57;5.28;;;12.90;99.90;;;;;;5026762;28;20108;-92
2022/10/27 04:50:23;;;;;;;11.85;5.50;;;12.90;99.90;;;;;;5028302;28;20037;-91
2022/10/27 04:53:00;;;;;;;10.25;5.97;;;12.90;99.90;;;;;;5027212;28;20018;-92
2022/10/27 04:55:27;;;;;;;7.75;4.68;;;12.90;99.90;;;;;;5026054;28;20092;-91
2022/10/27 04:57:53;;;;;;;10.32;4.90;;;12.90;99.90;;;;;;5022592;28;20025;-93
2022/10/27 05:00:19;;;;;;;6.15;4.40;;;12.80;99.90;;;;;;5027224;28;20050;-92
2022/10/27 05:02:50;;;;;;;10.10;5.07;;;12.80;99.90;;;;;;5025096;28;20027;-91
2022/10/27 05:05:16;;;;;;;9.80;4.93;;;12.80;99.90;;;;;;5025654;28;20552;-93
2022/10/27 05:07:42;;;;;;;13.35;4.50;;;12.70;99.90;;;;;;5023177;28;20029;-92
2022/10/27 05:10:08;;;;;;;7.93;4.95;;;12.80;99.90;;;;;;5023139;28;20374;-91
2022/10/27 05:12:33;;;;;;;11.18;4.32;;;12.70;99.90;;;;;;5026351;28;20117;-91
2022/10/27 05:14:59;;;;;;;10.60;5.38;;;12.70;99.90;;;;;;5027907;28;20127;-91
2022/10/27 05:17:24;;;;;;;9.73;5.07;;;12.70;99.90;;;;;;5027582;28;20108;-93
2022/10/27 05:19:50;;;;;;;13.50;5.40;;;12.70;99.90;;;;;;5027471;28;20040;-92
2022/10/27 05:22:15;;;;;;;15.60;5.00;;;12.70;99.90;;;;;;5024821;28;20429;-90
2022/10/27 05:24:41;;;;;;;10.13;4.82;;;12.70;99.90;;;;;;5026548;28;20025;-91
2022/10/27 05:27:06;;;;;;;9.18;5.13;;;12.60;99.90;;;;;;5019185;28;20060;-91
2022/10/27 05:29:32;;;;;;;9.50;5.05;;;12.60;99.90;;;;;;5026554;28;20064;-93
2022/10/27 05:31:58;;;;;;;7.78;4.55;;;12.60;99.90;;;;;;5025485;28;22112;-93
2022/10/27 05:34:23;;;;;;;10.93;5.13;;;12.60;99.90;;;;;;5021427;28;20030;-93
2022/10/27 05:36:50;;;;;;;10.63;4.95;;;12.60;99.90;;;;;;5026964;28;20036;-91
2022/10/27 05:39:15;;;;;;;7.38;5.50;;;12.60;99.90;;;;;;5026723;28;20025;-92
2022/10/27 05:41:41;;;;;;;10.50;5.43;;;12.60;99.90;;;;;;5024426;28;20068;-91
2022/10/27 05:44:07;;;;;;;10.00;5.45;;;12.60;99.90;;;;;;5023827;28;20033;-92
2022/10/27 05:46:32;;;;;;;10.45;4.90;;;12.60;99.90;;;;;;5023648;28;20033;-92
2022/10/27 05:48:58;;;;;;;11.20;5.45;;;12.60;99.90;;;;;;5024851;28;20029;-92
2022/10/27 05:51:23;;;;;;;7.90;5.10;;;12.70;99.90;;;;;;5023975;28;20096;-92
2022/10/27 05:53:50;;;;;;;14.40;5.32;;;12.60;99.90;;;;;;5025717;28;20026;-92
2022/10/27 05:56:16;;;;;;;9.55;5.28;;;12.70;99.90;;;;;;5023897;28;20029;-91
2022/10/27 05:58:41;;;;;;;10.73;5.55;;;12.60;99.90;;;;;;5025431;28;20113;-92
2022/10/27 06:01:07;;;;;;;8.45;4.85;;;12.70;99.90;;;;;;5024061;28;20447;-92
2022/10/27 06:03:32;;;;;;;10.38;4.95;;;12.70;99.90;;;;;;5028321;28;20044;-92
2022/10/27 06:06:03;;;;;;;11.48;4.70;;;12.70;99.90;;;;;;5028520;28;20029;-91
2022/10/27 06:08:28;;;;;;;10.23;5.00;;;12.70;99.90;;;;;;5023988;28;20025;-91
2022/10/27 06:10:55;;;;;;;11.57;5.43;;;12.70;99.90;;;;;;5024811;28;20401;-91
2022/10/27 06:13:21;;;;;;;10.73;5.28;;;12.70;99.90;;;;;;5024734;28;20026;-87
2022/10/27 06:15:46;;;;;;;9.10;4.97;;;12.70;99.90;;;;;;5021658;28;20022;-92
2022/10/27 06:18:12;;;;;;;8.68;4.18;;;12.70;99.90;;;;;;5025282;28;20832;-93
2022/10/27 06:20:38;;;;;;;7.95;4.22;;;12.70;99.90;;;;;;5030428;28;20069;-92
2022/10/27 06:23:03;;;;;;;12.48;4.32;;;12.60;99.90;;;;;;5027966;28;20037;-91
2022/10/27 06:25:29;;;;;;;8.32;5.05;;;12.60;99.90;;;;;;5024205;28;20025;-91
2022/10/27 06:27:55;;;;;;;8.43;3.97;;;12.60;99.90;;;;;;5028490;28;20049;-92
2022/10/27 06:30:21;;;;;;;8.07;4.72;;;12.70;99.90;;;;;;5028384;28;20025;-93
2022/10/27 06:32:46;;;;;;;10.40;4.60;;;12.70;99.90;;;;;;5028223;28;20031;-92
2022/10/27 06:35:12;;;;;;;11.15;4.70;;;12.70;99.90;;;;;;5030409;28;20030;-90
2022/10/27 06:37:39;;;;;;;10.65;4.90;;;12.70;99.90;;;;;;5030925;28;20424;-92
2022/10/27 06:40:08;;;;;;;10.30;4.63;;;12.80;99.90;;;;;;5032167;28;20053;-91
2022/10/27 06:42:40;;;;;;;13.48;4.82;;;12.80;99.90;;;;;;5046221;28;20050;-91
2022/10/27 06:45:06;;;;;;;;;;;12.90;99.90;;;;;;5045271;28;20021;-93
2022/10/27 06:47:32;;;;;;;10.98;4.95;;;12.90;99.90;;;;;;5026783;28;19919;-93
2022/10/27 06:49:58;;;;;;;11.50;4.53;;;12.90;99.90;;;;;;5026099;28;20052;-88
2022/10/27 06:52:24;;;;;;;7.55;4.43;;;12.90;99.90;;;;;;5031511;28;20543;-92
2022/10/27 06:54:50;;;;;;;8.77;4.18;;;13.00;99.90;;;;;;5049041;28;20478;-92
2022/10/27 06:57:16;;;;;;;10.70;4.25;;;13.10;99.90;;;;;;5049113;28;20029;-92
2022/10/27 06:59:41;;;;;;;10.48;4.00;;;13.10;99.90;;;;;;5036828;28;20009;-87
2022/10/27 07:02:10;;;;;;;10.77;5.25;;;13.20;99.90;;;;;;5031404;28;20089;-92
2022/10/27 07:04:36;;;;;;;8.30;3.70;;;13.20;99.90;;;;;;5035538;28;20044;-92
2022/10/27 07:07:02;;;;;;;11.45;4.20;;;13.30;99.90;;;;;;5030158;28;20029;-92
2022/10/27 07:09:28;;;;;;;9.35;3.47;;;13.30;99.90;;;;;;5032588;28;20060;-90
2022/10/27 07:11:53;;;;;;;9.68;4.20;;;13.30;99.90;;;;;;5032095;28;20026;-91
2022/10/27 07:14:19;;;;;;;8.40;3.33;;;13.40;99.90;;;;;;5033107;28;20061;-93
2022/10/27 07:16:45;;;;;;;10.82;3.60;;;13.40;99.90;;;;;;5055241;28;20028;-91
2022/10/27 07:19:10;;;;;;;8.63;3.83;;;13.40;99.90;;;;;;5036366;28;20119;-92
2022/10/27 07:21:36;;;;;;;7.72;3.65;;;13.40;99.90;;;;;;5037585;28;20032;-91
2022/10/27 07:24:02;;;;;;;11.98;4.05;;;13.40;99.90;;;;;;5033759;28;20033;-91
2022/10/27 07:26:28;;;;;;;5.40;3.42;;;13.40;99.90;;;;;;5033998;28;20020;-90
2022/10/27 07:28:53;;;;;;;9.45;3.58;;;13.40;99.90;;;;;;5009537;28;20162;-91
2022/10/27 07:31:19;;;;;;;8.27;3.55;;;13.50;99.90;;;;;;4989262;28;20500;-91
2022/10/27 07:33:44;;;;;;;8.80;3.35;;;13.50;99.90;;;;;;4985255;28;20105;-92
2022/10/27 07:36:10;;;;;;;5.63;3.15;;;13.50;99.90;;;;;;4990758;28;20033;-91
2022/10/27 07:38:37;;;;;;;6.65;3.33;;;13.60;99.90;;;;;;5003133;28;20032;-92
2022/10/27 07:41:03;;;;;;;5.25;3.20;;;13.60;99.90;;;;;;4987723;28;20075;-88
2022/10/27 07:43:29;;;;;;;9.90;3.42;;;13.60;99.90;;;;;;4989333;28;20028;-91
2022/10/27 07:45:55;;;;;;;8.13;3.10;;;13.60;99.90;;;;;;4986168;28;20048;-93
2022/10/27 07:48:20;;;;;;;5.32;3.30;;;13.60;99.90;;;;;;4989302;28;20044;-91
2022/10/27 07:50:46;;;;;;;5.43;3.30;;;13.70;99.90;;;;;;4986538;28;20064;-92
2022/10/27 07:53:14;;;;;;;7.40;3.00;;;13.70;99.90;;;;;;5027846;28;20028;-91
2022/10/27 07:55:40;;;;;;;10.30;3.85;;;13.70;99.90;;;;;;5036662;28;20082;-90
2022/10/27 07:58:09;;;;;;;6.65;3.58;;;13.70;99.90;;;;;;5036265;28;20049;-91
2022/10/27 08:00:40;;;;;;;7.97;3.45;;;13.70;99.90;;;;;;5033127;28;20037;-90
2022/10/27 08:03:09;;;;;;;8.05;3.20;;;13.80;99.90;;;;;;5034686;28;20025;-92
2022/10/27 08:05:36;;;;;;;6.35;3.28;;;13.80;99.90;;;;;;5037286;28;20025;-91
2022/10/27 08:08:04;;;;;;;8.65;3.58;;;13.90;99.90;;;;;;5036081;28;20032;-90
2022/10/27 08:10:31;;;;;;;12.27;3.72;;;13.90;99.90;;;;;;5037896;28;20108;-90
2022/10/27 08:12:56;;;;;;;7.53;3.40;;;14.00;99.90;;;;;;5034568;28;20465;-91
2022/10/27 08:15:23;;;;;;;6.85;2.80;;;14.20;99.90;;;;;;5033751;28;20043;-91
2022/10/27 08:17:51;;;;;;;10.38;3.42;;;14.30;99.90;;;;;;5031733;28;20048;-90
2022/10/27 08:20:17;;;;;;;5.80;3.05;;;14.50;99.90;;;;;;5035212;28;20437;-90
2022/10/27 08:22:42;;;;;;;4.97;2.63;;;14.60;99.90;;;;;;5037972;28;20036;-91
2022/10/27 08:25:08;;;;;;;9.98;3.28;;;14.70;99.90;;;;;;5034207;28;20168;-91
2022/10/27 08:27:34;;;;;;;7.78;2.28;;;14.80;99.90;;;;;;5035781;28;20059;-92
2022/10/27 08:29:59;;;;;;;4.60;2.47;;;14.90;99.90;;;;;;5035024;28;20029;-92
2022/10/27 08:32:25;;;;;;;5.30;2.90;;;14.90;99.90;;;;;;5038307;28;20076;-91
2022/10/27 08:34:50;;;;;;;10.68;2.55;;;15.00;99.90;;;;;;5035205;28;20029;-92
2022/10/27 08:37:16;;;;;;;9.18;2.78;;;14.90;99.90;;;;;;5034108;28;20115;-91
2022/10/27 08:39:42;;;;;;;6.45;2.70;;;15.00;99.90;;;;;;5026324;28;20382;-91
2022/10/27 08:42:25;;;;;;;6.25;2.80;;;15.10;99.90;;;;;;5033371;28;20040;-93
2022/10/27 08:45:33;;;;;;;4.88;2.15;;;15.20;99.90;;;;;;5030662;28;20025;-92
2022/10/27 08:48:00;;;;;;;8.15;2.60;;;15.30;99.90;;;;;;4954844;28;20033;-91
2022/10/27 08:50:30;;;;;;;4.57;2.13;;;15.40;99.90;;;;;;5025097;28;20039;-91
2022/10/27 08:53:01;;;;;;;7.47;3.10;;;15.40;99.90;;;;;;5032084;28;20060;-91
2022/10/27 08:55:52;;;;;;;4.35;2.40;;;15.40;99.90;;;;;;5032363;28;20017;-91
2022/10/27 08:58:39;;;;;;;8.65;2.60;;;15.50;99.90;;;;;;5029992;28;20029;-92
2022/10/27 09:01:14;;;;;;;7.32;2.80;;;15.60;99.90;;;;;;5028289;28;20063;-91
2022/10/27 09:03:58;;;;;;;7.90;2.20;;;15.70;99.90;;;;;;5029341;28;20049;-92
2022/10/27 09:06:31;;;;;;;8.23;2.35;;;15.80;99.90;;;;;;5035162;28;20053;-91
2022/10/27 09:09:15;;;;;;;8.52;2.08;;;15.90;99.90;;;;;;5033626;28;20024;-91
2022/10/27 09:11:56;;;;;;;5.25;2.10;;;16.10;99.90;;;;;;5035015;28;20154;-90
2022/10/27 09:14:44;;;;;;;8.05;1.77;;;16.00;99.90;;;;;;5027975;28;20032;-91
2022/10/27 09:17:36;;;;;;;4.18;1.65;;;16.20;99.90;;;;;;5046388;28;20079;-91
2022/10/27 09:20:27;;;;;;;5.37;2.20;;;16.30;99.90;;;;;;5041926;28;20052;-91
2022/10/27 09:22:56;;;;;;;9.88;2.03;;;16.40;99.90;;;;;;5029126;28;20323;-92
2022/10/27 09:25:22;;;;;;;7.85;1.80;;;16.50;99.90;;;;;;5042669;28;20029;-91
2022/10/27 09:27:54;;;;;;;3.95;1.30;;;16.60;99.90;;;;;;5032324;28;20044;-92
2022/10/27 09:30:20;;;;;;;4.35;1.10;;;16.80;99.90;;;;;;5028605;28;20450;-92
2022/10/27 09:32:50;;;;;;;4.63;1.23;;;16.80;99.90;;;;;;5025054;28;20034;-92
2022/10/27 09:35:20;;;;;;;2.75;1.15;;;17.00;99.90;;;;;;5026570;28;20032;-92
2022/10/27 09:37:46;;;;;;;6.00;1.13;;;17.10;99.90;;;;;;5026511;28;20059;-92
2022/10/27 09:40:22;;;;;;;6.25;1.20;;;17.30;99.90;;;;;;5038031;28;20640;-92
2022/10/27 09:42:52;;;;;;;2.75;0.88;;;17.40;99.90;;;;;;5030652;28;20029;-93
2022/10/27 09:45:23;;;;;;;6.10;1.40;;;17.40;99.90;;;;;;5030957;28;20051;-91
2022/10/27 09:47:59;;;;;;;5.28;1.00;;;17.50;99.90;;;;;;5031203;28;20131;-92
2022/10/27 09:50:44;;;;;;;3.58;0.88;;;17.60;99.90;;;;;;5028892;28;21782;-91
2022/10/27 09:53:52;;;;;;;4.82;1.35;;;17.60;99.90;;;;;;5040723;28;20026;-92
2022/10/27 09:56:27;;;;;;;8.32;1.20;;;17.70;99.90;;;;;;4971811;28;20038;-92
2022/10/27 09:59:01;;;;;;;5.70;0.90;;;17.70;99.90;;;;;;5026809;28;20044;-92
2022/10/27 10:01:32;;;;;;;5.57;0.85;;;17.70;99.90;;;;;;5050015;28;20029;-91
2022/10/27 10:04:05;;;;;;;4.55;0.77;;;17.80;99.90;;;;;;5032999;28;20032;-92
2022/10/27 10:06:36;;;;;;;2.90;0.90;;;17.90;99.90;;;;;;5029930;28;20029;-90
2022/10/27 10:09:41;;;;;;;4.38;0.70;;;18.00;99.90;;;;;;5030793;28;20033;-94
2022/10/27 10:12:24;;;;;;;6.07;0.90;;;18.10;99.90;;;;;;5042269;28;20030;-92
2022/10/27 10:14:50;;;;;;;4.53;0.80;;;18.20;99.90;;;;;;5044711;28;20489;-92
2022/10/27 10:17:26;;;;;;;3.30;0.88;;;18.30;99.90;;;;;;5034636;28;20075;-92
2022/10/27 10:19:55;;;;;;;10.05;1.05;;;18.50;99.90;;;;;;5026126;28;20074;-92
2022/10/27 10:22:30;;;;;;;3.47;0.60;;;18.70;99.90;;;;;;5038309;28;20054;-92
2022/10/27 10:24:59;;;;;;;6.38;0.70;;;18.90;99.90;;;;;;5037139;28;20033;-91
2022/10/27 10:27:31;;;;;;;4.65;0.60;;;19.10;99.90;;;;;;5046900;28;20025;-90
2022/10/27 10:30:03;;;;;;;6.05;0.60;;;19.20;99.90;;;;;;5042635;28;20021;-91
2022/10/27 10:32:34;;;;;;;2.03;0.43;;;19.30;99.90;;;;;;5048711;28;20025;-91
2022/10/27 10:35:00;;;;;;;1.67;0.50;;;19.40;99.90;;;;;;5034173;28;20033;-92
2022/10/27 10:37:38;;;;;;;3.97;0.57;;;19.40;99.90;;;;;;5037213;28;20082;-91
2022/10/27 10:40:23;;;;;;;4.75;0.68;;;19.50;99.90;;;;;;5032720;28;20049;-90
2022/10/27 10:43:19;;;;;;;3.33;0.50;;;19.50;99.90;;;;;;5026423;28;20036;-92
2022/10/27 10:45:51;;;;;;;2.25;0.40;;;19.60;99.90;;;;;;5033390;28;20404;-92
2022/10/27 10:48:16;;;;;;;;;;;19.60;99.90;;;;;;5036428;28;20048;-91
2022/10/27 10:50:49;;;;;;;4.82;0.60;;;19.60;99.90;;;;;;5037535;28;19917;-91
2022/10/27 10:53:32;;;;;;;;;;;19.70;99.90;;;;;;5031921;28;20025;-92
2022/10/27 10:56:03;;;;;;;3.63;0.43;;;19.70;99.90;;;;;;5043817;28;19909;-91
2022/10/27 10:58:31;;;;;;;2.63;0.43;;;19.70;99.90;;;;;;5026877;28;20043;-91
2022/10/27 11:01:03;;;;;;;1.83;0.45;;;19.70;99.90;;;;;;5046440;28;20032;-87
2022/10/27 11:03:32;;;;;;;;;;;19.80;99.90;;;;;;5031199;28;20026;-91
2022/10/27 11:06:03;;;;;;;4.20;0.55;;;19.90;99.90;;;;;;5031307;28;19909;-90
2022/10/27 11:08:41;;;;;;;2.50;0.40;;;19.80;99.90;;;;;;5034842;28;20017;-91
2022/10/27 11:11:16;;;;;;;4.90;1.02;;;19.90;99.90;;;;;;5034541;28;20393;-90
2022/10/27 11:14:05;;;;;;;5.07;0.77;;;19.90;99.90;;;;;;5037700;28;20445;-92
2022/10/27 11:16:32;;;;;;;2.40;0.50;;;20.00;99.90;;;;;;5034914;28;20091;-90
2022/10/27 11:19:01;;;;;;;3.78;0.50;;;20.10;99.90;;;;;;5031572;28;20401;-91
2022/10/27 11:21:49;;;;;;;3.10;0.63;;;20.10;99.90;;;;;;5030525;28;20041;-90
2022/10/27 11:24:21;;;;;;;4.82;0.60;;;20.10;99.90;;;;;;5037879;28;20052;-92
2022/10/27 11:27:02;;;;;;;4.00;0.60;;;20.10;99.90;;;;;;5037172;28;20477;-92
2022/10/27 11:29:38;;;;;;;5.32;1.10;;;20.10;99.90;;;;;;5036929;28;20028;-92
2022/10/27 11:32:33;;;;;;;5.63;0.43;;;20.10;99.90;;;;;;5054605;28;20039;-91
2022/10/27 11:35:27;;;;;;;1.75;0.40;;;20.10;99.90;;;;;;5035262;28;20047;-92
2022/10/27 11:38:13;;;;;;;1.90;0.70;;;20.10;99.90;;;;;;5050199;28;20793;-92
2022/10/27 11:40:51;;;;;;;3.47;0.50;;;20.10;99.90;;;;;;5035627;28;20477;-91
2022/10/27 11:43:27;;;;;;;3.60;0.50;;;20.10;99.90;;;;;;5035748;28;20092;-92
2022/10/27 11:46:09;;;;;;;8.48;1.25;;;20.20;99.90;;;;;;5032353;28;20044;-87
2022/10/27 11:48:38;;;;;;;2.72;0.73;;;20.20;99.90;;;;;;5033390;28;20108;-88
2022/10/27 11:51:06;;;;;;;3.15;0.50;;;20.20;99.90;;;;;;5048580;28;20508;-88
2022/10/27 11:53:32;;;;;;;2.15;0.50;;;20.20;99.90;;;;;;5033109;28;20024;-88
2022/10/27 11:56:14;;;;;;;2.22;0.50;;;20.30;99.90;;;;;;5034615;28;20389;-87
2022/10/27 11:58:58;;;;;;;;;;;20.30;99.90;;;;;;5027858;28;20496;-88
2022/10/27 12:01:54;;;;;;;5.03;0.70;;;20.30;99.90;;;;;;5042804;28;19921;-88
2022/10/27 12:05:00;;;;;;;4.90;0.57;;;20.30;99.90;;;;;;5030585;28;20029;-88
2022/10/27 12:07:35;;;;;;;2.47;0.60;;;20.50;99.90;;;;;;4967186;28;20045;-87
2022/10/27 12:10:23;;;;;;;4.97;0.70;;;20.50;99.90;;;;;;5040073;28;20025;-92
2022/10/27 12:12:58;;;;;;;2.85;0.52;;;20.70;99.90;;;;;;5031089;28;20500;-91
2022/10/27 12:15:31;;;;;;;4.80;0.65;;;20.80;99.90;;;;;;5033754;28;20025;-91
2022/10/27 12:18:21;;;;;;;4.30;0.60;;;20.80;99.90;;;;;;5032152;28;20024;-88
2022/10/27 12:21:21;;;;;;;3.92;0.60;;;20.80;99.90;;;;;;5039293;28;20087;-93
2022/10/27 12:24:11;;;;;;;4.53;0.50;;;20.80;99.90;;;;;;5028376;28;20025;-93
2022/10/27 12:26:49;;;;;;;4.93;0.70;;;20.70;99.90;;;;;;5049410;28;20028;-92
2022/10/27 12:29:16;;;;;;;5.18;0.63;;;20.70;99.90;;;;;;5044830;28;20047;-91
2022/10/27 12:31:49;;;;;;;1.70;0.50;;;20.60;99.90;;;;;;5034385;28;20122;-91
2022/10/27 12:34:16;;;;;;;3.30;0.50;;;20.50;99.90;;;;;;5033454;28;20025;-92
2022/10/27 12:36:57;;;;;;;4.68;0.60;;;20.50;99.90;;;;;;5041335;28;20030;-92
2022/10/27 12:39:54;;;;;;;4.22;0.50;;;20.50;99.90;;;;;;5034819;28;20556;-92
2022/10/27 12:42:43;;;;;;;3.63;0.60;;;20.40;99.90;;;;;;5031375;28;20045;-91
2022/10/27 12:45:47;;;;;;;3.85;0.90;;;20.40;99.90;;;;;;5034682;28;20032;-92
2022/10/27 12:48:56;;;;;;;6.25;0.70;;;20.30;99.90;;;;;;5060286;28;20037;-93
2022/10/27 12:51:47;;;;;;;5.05;0.90;;;20.30;99.90;;;;;;5036599;28;20025;-92
2022/10/27 12:54:32;;;;;;;4.75;0.70;;;20.20;99.90;;;;;;5032965;28;20063;-93
2022/10/27 12:57:29;;;;;;;2.63;0.57;;;20.30;99.90;;;;;;5034735;28;20025;-93
2022/10/27 13:00:13;;;;;;;2.33;0.60;;;20.20;99.90;;;;;;5033155;28;20051;-93
2022/10/27 13:02:39;;;;;;;4.10;0.70;;;20.20;99.90;;;;;;5031928;28;20171;-92
2022/10/27 13:05:43;;;;;;;2.20;0.60;;;20.20;99.90;;;;;;5032361;28;20067;-89
2022/10/27 13:08:46;;;;;;;3.45;0.60;;;20.20;99.90;;;;;;5028410;28;20068;-91